Terminal Aerodrome Forecast
Issued by NWS

Home | Current Version | Previous Version | Text Only | Print | Product List | Glossary Off
Versions: 1 2 3 4 5 6 7 8 9 10 11 12 13 14 15 16 17 18 19 20 21

000
FTUS43 KABR 201017 AAB
TAFPIR
TAF AMD
KPIR 201017Z 2010/2106 33014KT 5SM -SN OVC035
      TEMPO 2010/2014 2SM -SN BLSN
     FM201400 32011KT P6SM BKN045
     FM202200 29009KT P6SM SCT100=

USA.gov is the U.S. government's official web portal to all federal, state and local government web resources and services.